West Bend, Wisconsin
Current Conditions -  °F | °C
As of 3:35 AM on Friday 28 Nov 2014 (Local Time) from KETB Reporting Station
Overcast Overcast  
Wind Chill: 12°   Ceiling: 8000
Heat Index: 12°   Visibility: 10mi
Dew Point:   Wind: 0mph
Humidity: 85%   Direction: NA
Pressure: 30.32"   Gusts: NA
Location:  43.41°N, 88.18°W
Report Text: KETB 280935Z AUTO 00000KT 10SM OVC080 M11/M13 A3032 RMK AO2
Loading
Personal Weather Stations






























Interactive Weather Map New forecast layout! Learn more

10-Day Weather Forecast

Advertisements
Track Severe Weather on mobile